Time;durP1;ratioP1;P1;durP2;ratioP2;P2;SDS_P1;SDS_P2;PMS_P1;PMS_P2;Temp;Humidity;BMP_temperature;BMP_pressure;BME280_temperature;BME280_humidity;BME280_pressure;Samples;Min_cycle;Max_cycle;Signal;HPM_P1;HPM_P2
2024/03/05 00:02:17;;;;;;;13.63;8.05;;;;;;;-146.27;83.58;45960.47;5070224;28;20107;-71
2024/03/05 00:04:42;;;;;;;12.23;8.57;;;;;;;-146.27;83.28;45964.44;5069775;28;20081;-70
2024/03/05 00:07:09;;;;;;;16.13;8.93;;;;;;;-146.27;84.23;45950.50;5070235;28;20418;-71
2024/03/05 00:09:36;;;;;;;14.88;8.05;;;;;;;-146.27;83.96;45980.38;5069867;28;20036;-70
2024/03/05 00:12:02;;;;;;;12.85;8.50;;;;;;;-146.27;83.73;45966.44;5059017;28;20477;-71
2024/03/05 00:14:28;;;;;;;16.98;7.95;;;;;;;-146.27;83.84;45974.41;5067979;28;20028;-70
2024/03/05 00:16:56;;;;;;;13.13;8.85;;;;;;;-146.27;83.33;45950.50;5069923;28;20020;-70
2024/03/05 00:19:21;;;;;;;15.48;8.48;;;;;;;-146.27;83.31;45988.31;5070552;28;20033;-71
2024/03/05 00:21:47;;;;;;;15.45;8.50;;;;;;;-146.27;83.48;45990.31;5070273;28;20032;-70
2024/03/05 00:24:12;;;;;;;16.75;8.57;;;;;;;-146.27;83.94;45986.34;5070345;28;20032;-71
2024/03/05 00:26:38;;;;;;;11.52;8.38;;;;;;;-146.27;83.75;45984.34;5068549;28;20032;-71
2024/03/05 00:29:04;;;;;;;16.33;8.88;;;;;;;-146.27;84.27;45978.38;5070725;28;20070;-72
2024/03/05 00:31:30;;;;;;;12.73;8.45;;;;;;;-146.27;84.29;45964.44;5069957;28;20028;-72
2024/03/05 00:33:55;;;;;;;16.52;9.80;;;;;;;-146.27;83.83;46006.25;5069624;28;20024;-69
2024/03/05 00:36:21;;;;;;;18.13;10.00;;;;;;;-146.27;83.78;45994.31;5065801;28;20024;-71
2024/03/05 00:38:46;;;;;;;15.57;9.90;;;;;;;-146.27;84.61;46014.22;5069132;28;20035;-71
2024/03/05 00:41:13;;;;;;;13.77;8.80;;;;;;;-146.27;83.96;45994.31;5069930;28;20083;-71
2024/03/05 00:43:39;;;;;;;15.77;9.95;;;;;;;-146.27;84.33;46014.22;5068440;28;20089;-69
2024/03/05 00:46:05;;;;;;;17.35;10.13;;;;;;;-146.27;84.38;46002.25;5069662;28;20056;-70
2024/03/05 00:48:31;;;;;;;13.45;8.77;;;;;;;-146.27;84.48;46000.28;5079699;28;20047;-71
2024/03/05 00:50:57;;;;;;;15.02;9.95;;;;;;;-146.27;84.05;46028.13;5069401;28;20025;-71
2024/03/05 00:53:23;;;;;;;16.05;9.95;;;;;;;-146.27;84.23;46018.19;5070622;28;20040;-71
2024/03/05 00:55:48;;;;;;;17.75;9.68;;;;;;;-146.27;83.86;46061.97;5068279;28;20039;-72
2024/03/05 00:58:14;;;;;;;14.57;9.43;;;;;;;-146.27;84.26;46046.06;5069062;28;20089;-70
2024/03/05 01:00:39;;;;;;;14.70;8.80;;;;;;;-146.27;84.82;45990.31;5068622;28;20100;-70
2024/03/05 01:03:04;;;;;;;15.82;9.48;;;;;;;-146.27;84.32;46006.25;5069484;28;20085;-70
2024/03/05 01:05:30;;;;;;;17.67;9.60;;;;;;;-146.27;84.17;46058.00;5068809;28;20505;-72
2024/03/05 01:07:56;;;;;;;15.00;9.23;;;;;;;-146.27;84.77;46046.06;5067446;28;20480;-72
2024/03/05 01:10:21;;;;;;;18.52;9.50;;;;;;;-146.27;85.46;46026.16;5069800;28;20488;-75
2024/03/05 01:12:46;;;;;;;18.95;10.20;;;;;;;-146.27;84.75;46014.22;5069916;28;20033;-75
2024/03/05 01:15:12;;;;;;;15.73;9.55;;;;;;;-146.27;84.84;46006.25;5068374;28;20028;-75
2024/03/05 01:17:39;;;;;;;22.65;9.77;;;;;;;-146.27;85.07;46012.22;5069342;28;20020;-75
2024/03/05 01:20:10;;;;;;;20.48;10.82;;;;;;;-146.27;85.15;46006.25;5070500;28;20036;-74
2024/03/05 01:22:36;;;;;;;18.70;10.25;;;;;;;-146.27;85.07;46002.25;5069435;28;20020;-75
2024/03/05 01:25:01;;;;;;;18.77;10.07;;;;;;;-146.27;85.89;45970.41;5069287;28;20069;-75
2024/03/05 01:27:27;;;;;;;16.38;10.13;;;;;;;-146.27;85.57;45950.50;5067901;28;20162;-75
2024/03/05 01:29:52;;;;;;;16.10;9.88;;;;;;;-146.27;85.94;45948.53;5069628;28;20039;-74
2024/03/05 01:32:19;;;;;;;18.55;10.55;;;;;;;-146.27;85.75;45994.31;5068736;28;20480;-75
2024/03/05 01:34:47;;;;;;;17.80;10.05;;;;;;;-146.27;85.18;45980.38;5069767;28;20055;-75
2024/03/05 01:37:13;;;;;;;19.80;10.18;;;;;;;-146.27;85.15;45982.34;5070625;28;20012;-75
2024/03/05 01:39:38;;;;;;;21.35;10.30;;;;;;;-146.27;85.42;46002.25;5068282;28;20158;-75
2024/03/05 01:42:07;;;;;;;17.70;10.82;;;;;;;-146.27;85.28;46012.22;5068998;28;20115;-75
2024/03/05 01:44:33;;;;;;;21.38;10.93;;;;;;;-146.27;85.30;46002.25;5068907;28;20051;-74
2024/03/05 01:46:59;;;;;;;19.98;10.52;;;;;;;-146.27;85.40;46018.19;5067917;28;20499;-75
2024/03/05 01:49:27;;;;;;;18.95;10.38;;;;;;;-146.27;85.50;46002.25;5069154;28;20029;-74
2024/03/05 01:51:55;;;;;;;20.58;11.55;;;;;;;-146.27;85.58;45986.34;5067586;28;20496;-75
2024/03/05 01:54:21;;;;;;;16.35;10.27;;;;;;;-146.27;86.09;45958.47;5068973;28;20401;-75
2024/03/05 01:56:50;;;;;;;16.75;11.30;;;;;;;-146.27;86.21;45982.34;5068477;28;20021;-74
2024/03/05 01:59:17;;;;;;;18.13;10.55;;;;;;;-146.27;86.53;45950.50;5069425;28;20028;-73
2024/03/05 02:01:43;;;;;;;21.85;11.05;;;;;;;-146.27;87.30;45910.69;5067600;28;20162;-73
2024/03/05 02:04:09;;;;;;;23.05;10.98;;;;;;;-146.27;86.72;45914.69;5069246;28;20127;-75
2024/03/05 02:06:36;;;;;;;18.77;10.80;;;;;;;-146.27;86.64;45922.63;5069618;28;20724;-75
2024/03/05 02:09:01;;;;;;;22.75;11.52;;;;;;;-146.27;87.08;45898.75;5057441;28;20025;-75
2024/03/05 02:11:27;;;;;;;19.75;11.23;;;;;;;-146.27;86.25;45922.63;5060757;28;20119;-75
2024/03/05 02:13:53;;;;;;;25.70;11.77;;;;;;;-146.27;85.40;45950.50;5074372;28;20024;-74
2024/03/05 02:16:18;;;;;;;20.63;10.80;;;;;;;-146.27;86.34;45946.53;5064559;28;20028;-74
2024/03/05 02:18:44;;;;;;;22.15;11.70;;;;;;;-146.27;85.98;45934.59;5068946;28;20035;-76
2024/03/05 02:21:18;;;;;;;21.30;11.02;;;;;;;-146.27;86.64;45924.63;5069039;28;20028;-71
2024/03/05 02:23:43;;;;;;;21.85;11.70;;;;;;;-146.27;86.40;45934.59;5069014;28;20025;-70
2024/03/05 02:26:10;;;;;;;19.33;11.65;;;;;;;-146.27;86.28;45922.63;5067494;28;20032;-71
2024/03/05 02:28:38;;;;;;;26.55;13.15;;;;;;;-146.27;87.20;45894.78;5069402;28;20066;-72
2024/03/05 02:31:03;;;;;;;20.27;11.63;;;;;;;-146.27;86.49;45906.72;5072133;28;20465;-71
2024/03/05 02:33:29;;;;;;;22.40;12.27;;;;;;;-146.27;86.85;45914.69;5072076;28;20107;-70
2024/03/05 02:35:58;;;;;;;21.38;11.90;;;;;;;-146.27;86.65;45890.78;5072949;28;20082;-72
2024/03/05 02:38:24;;;;;;;20.88;12.23;;;;;;;-146.27;87.25;45882.84;5071944;28;20056;-71
2024/03/05 02:40:50;;;;;;;20.67;12.23;;;;;;;-146.27;87.08;45886.81;5072306;28;20039;-71
2024/03/05 02:43:16;;;;;;;24.67;12.00;;;;;;;-146.27;86.75;45886.81;5071691;28;20033;-71
2024/03/05 02:45:42;;;;;;;23.85;12.55;;;;;;;-146.27;86.79;45880.84;5069902;28;20025;-71
2024/03/05 02:48:09;;;;;;;27.75;13.15;;;;;;;-146.27;87.36;45866.91;5068480;28;20396;-70
2024/03/05 02:50:34;;;;;;;25.77;13.38;;;;;;;-146.27;87.08;45864.91;5071756;28;20086;-72
2024/03/05 02:52:59;;;;;;;22.15;12.27;;;;;;;-146.27;87.03;45870.88;5072293;28;20024;-72
2024/03/05 02:55:25;;;;;;;26.40;12.75;;;;;;;-146.27;86.81;45878.84;5072153;28;20048;-71
2024/03/05 02:57:50;;;;;;;24.08;12.88;;;;;;;-146.27;86.99;45886.81;5079239;28;20024;-71
2024/03/05 03:00:19;;;;;;;29.10;13.93;;;;;;;-146.27;87.05;45902.75;5072541;28;20017;-71
2024/03/05 03:02:46;;;;;;;29.08;14.18;;;;;;;-146.27;87.50;45858.94;5071284;28;20036;-71
2024/03/05 03:05:13;;;;;;;29.80;14.35;;;;;;;-146.27;87.32;45839.03;5072823;28;20074;-71
2024/03/05 03:07:38;;;;;;;27.85;13.23;;;;;;;-146.27;87.72;45805.19;5072393;28;20032;-71
2024/03/05 03:10:05;;;;;;;34.70;14.20;;;;;;;-146.27;87.86;45827.09;5071721;28;20440;-70
2024/03/05 03:12:31;;;;;;;30.42;15.27;;;;;;;-146.27;87.95;45789.28;5072701;28;20029;-71
2024/03/05 03:14:57;;;;;;;29.27;14.35;;;;;;;-146.27;87.89;45797.25;5071982;28;20021;-70
2024/03/05 03:17:22;;;;;;;30.45;14.80;;;;;;;-146.27;88.06;45781.31;5069829;28;20036;-71
2024/03/05 03:19:48;;;;;;;31.70;15.30;;;;;;;-146.27;87.84;45751.47;5070176;28;20028;-71
2024/03/05 03:22:13;;;;;;;35.50;15.85;;;;;;;-146.27;88.15;45747.47;5070803;28;20108;-69
2024/03/05 03:24:38;;;;;;;34.70;15.98;;;;;;;-146.27;88.47;45727.56;5071101;28;20017;-71
2024/03/05 03:27:04;;;;;;;33.67;16.05;;;;;;;-146.27;88.56;45705.69;5070891;28;20074;-71
2024/03/05 03:29:30;;;;;;;30.58;15.63;;;;;;;-146.27;88.45;45703.69;5073746;28;20082;-70
2024/03/05 03:31:56;;;;;;;36.45;16.35;;;;;;;-146.27;88.59;45711.66;5074653;28;20085;-72
2024/03/05 03:34:21;;;;;;;30.73;14.75;;;;;;;-146.27;88.11;45701.69;5071726;28;20035;-72
2024/03/05 03:36:47;;;;;;;32.88;16.40;;;;;;;-146.27;88.67;45630.06;5071748;28;20091;-71
2024/03/05 03:39:17;;;;;;;37.05;15.10;;;;;;;-146.27;88.28;45657.91;5051686;28;20388;-71
2024/03/05 03:41:43;;;;;;;33.35;14.50;;;;;;;-146.27;88.28;45671.84;5062193;28;20103;-70
2024/03/05 03:44:08;;;;;;;34.55;17.02;;;;;;;-146.27;87.72;45663.88;5071984;28;20111;-71
2024/03/05 03:46:37;;;;;;;35.28;15.80;;;;;;;-146.27;88.43;45643.97;5067977;28;20059;-71
2024/03/05 03:49:05;;;;;;;36.33;15.85;;;;;;;-146.27;87.73;45671.84;5065904;28;20770;-70
2024/03/05 03:51:32;;;;;;;39.75;16.92;;;;;;;-146.27;87.75;45679.81;5069836;28;20086;-69
2024/03/05 03:53:57;;;;;;;36.58;16.52;;;;;;;-146.27;88.19;45651.94;5070763;28;20028;-70
2024/03/05 03:56:22;;;;;;;34.35;15.73;;;;;;;-146.27;87.87;45677.81;5070758;28;20026;-71
2024/03/05 03:58:48;;;;;;;33.80;16.52;;;;;;;-146.27;87.71;45665.88;5070388;28;20086;-71
2024/03/05 04:01:13;;;;;;;30.80;16.25;;;;;;;-146.27;88.26;45657.91;5069960;28;20021;-71
2024/03/05 04:03:39;;;;;;;36.85;16.48;;;;;;;-146.27;88.32;45626.06;5070055;28;20116;-71
2024/03/05 04:06:05;;;;;;;34.05;14.95;;;;;;;-146.27;87.70;45661.91;5068544;28;20532;-70
2024/03/05 04:08:31;;;;;;;41.03;16.75;;;;;;;-146.27;87.94;45679.81;5070043;28;20109;-71
2024/03/05 04:10:56;;;;;;;36.47;16.63;;;;;;;-146.27;88.02;45689.75;5070021;28;20028;-70
2024/03/05 04:13:22;;;;;;;42.83;17.58;;;;;;;-146.27;87.81;45653.94;5070192;28;20028;-70
2024/03/05 04:15:47;;;;;;;37.15;16.52;;;;;;;-146.27;87.81;45653.94;5070420;28;20063;-71
2024/03/05 04:18:13;;;;;;;35.20;16.55;;;;;;;-146.27;88.60;45632.03;5070420;28;20386;-71
2024/03/05 04:20:40;;;;;;;41.47;16.88;;;;;;;-146.27;88.59;45628.06;5070640;28;20020;-74
2024/03/05 04:23:06;;;;;;;36.60;15.57;;;;;;;-146.27;88.48;45624.06;5070534;28;20047;-72
2024/03/05 04:25:39;;;;;;;42.80;17.20;;;;;;;-146.27;88.88;45600.19;5070396;28;20021;-72
2024/03/05 04:28:10;;;;;;;33.15;15.93;;;;;;;-146.27;88.53;45636.03;5070516;28;20079;-70
2024/03/05 04:30:37;;;;;;;31.75;15.85;;;;;;;-146.27;88.67;45612.13;5068536;28;20021;-70
2024/03/05 04:33:05;;;;;;;38.20;17.88;;;;;;;-146.27;88.63;45592.22;5063924;28;20033;-69
2024/03/05 04:35:30;;;;;;;39.78;17.23;;;;;;;-146.27;88.76;45562.38;5068349;28;20480;-71
2024/03/05 04:37:56;;;;;;;45.70;17.73;;;;;;;-146.27;88.78;45582.28;5070820;28;20036;-70
2024/03/05 04:40:22;;;;;;;43.53;17.85;;;;;;;-146.27;88.84;45548.44;5070747;28;20104;-71
2024/03/05 04:42:49;;;;;;;36.35;17.17;;;;;;;-146.27;88.54;45540.50;5065362;28;20446;-71
2024/03/05 04:45:15;;;;;;;42.05;17.13;;;;;;;-146.27;88.31;45572.34;5070249;28;20036;-71
2024/03/05 04:47:40;;;;;;;39.13;17.08;;;;;;;-146.27;88.13;45596.22;5069484;28;20377;-72
2024/03/05 04:50:06;;;;;;;35.40;16.50;;;;;;;-146.27;88.38;45560.38;5069638;28;20043;-71
2024/03/05 04:52:33;;;;;;;42.10;18.40;;;;;;;-146.27;88.56;45584.28;5072221;28;20021;-71
2024/03/05 04:54:58;;;;;;;48.58;19.08;;;;;;;-146.27;88.43;45546.47;5069182;28;20086;-69
2024/03/05 04:57:24;;;;;;;39.30;18.23;;;;;;;-146.27;88.32;45542.47;5070250;28;20469;-71
2024/03/05 04:59:49;;;;;;;41.10;19.42;;;;;;;-146.27;88.46;45556.41;5070793;28;20068;-71
2024/03/05 05:02:15;;;;;;;45.85;19.77;;;;;;;-146.27;88.40;45552.44;5068683;28;20025;-70
2024/03/05 05:04:41;;;;;;;45.78;18.83;;;;;;;-146.27;88.62;45546.47;5069145;28;20028;-71
2024/03/05 05:07:07;;;;;;;46.40;19.52;;;;;;;-146.27;88.50;45532.53;5069787;28;20058;-71
2024/03/05 05:09:39;;;;;;;42.22;17.33;;;;;;;-146.27;88.78;45532.53;5064189;28;20664;-71
2024/03/05 05:12:05;;;;;;;48.80;19.05;;;;;;;-146.27;88.40;45520.59;5068204;28;20115;-70
2024/03/05 05:14:30;;;;;;;40.90;19.23;;;;;;;-146.27;88.93;45538.50;5069694;28;20112;-70
2024/03/05 05:16:56;;;;;;;42.25;18.63;;;;;;;-146.27;88.82;45516.59;5069852;28;20031;-70
2024/03/05 05:19:22;;;;;;;41.08;18.15;;;;;;;-146.27;88.91;45532.53;5069292;28;20103;-71
2024/03/05 05:21:47;;;;;;;44.53;19.48;;;;;;;-146.27;88.44;45534.50;5069870;28;20028;-71
2024/03/05 05:24:13;;;;;;;48.33;19.73;;;;;;;-146.27;88.71;45524.56;5068048;28;20028;-72
2024/03/05 05:26:42;;;;;;;43.63;19.20;;;;;;;-146.27;89.55;45508.63;5069201;28;20040;-71
2024/03/05 05:29:08;;;;;;;40.50;18.65;;;;;;;-146.27;88.88;45514.63;5068875;28;20055;-70
2024/03/05 05:31:33;;;;;;;47.58;19.70;;;;;;;-146.27;88.94;45544.47;5068906;28;20048;-71
2024/03/05 05:33:59;;;;;;;43.92;18.88;;;;;;;-146.27;89.13;45524.56;5069680;28;20039;-70
2024/03/05 05:36:24;;;;;;;47.70;19.55;;;;;;;-146.27;89.72;45480.78;5069914;28;20016;-71
2024/03/05 05:38:50;;;;;;;45.72;20.58;;;;;;;-146.27;89.50;45480.78;5065337;28;20081;-68
2024/03/05 05:41:18;;;;;;;43.33;19.05;;;;;;;-146.27;88.83;45506.66;5066770;28;20388;-71
2024/03/05 05:43:44;;;;;;;48.80;19.50;;;;;;;-146.27;88.76;45508.63;5065468;28;20029;-71
2024/03/05 05:46:14;;;;;;;50.92;20.13;;;;;;;-146.27;89.13;45492.72;5068874;28;20567;-71
2024/03/05 05:48:43;;;;;;;48.47;20.50;;;;;;;-146.27;89.48;45484.75;5069008;28;20108;-71
2024/03/05 05:51:10;;;;;;;49.30;19.02;;;;;;;-146.27;88.97;45490.72;5062645;28;20032;-75
2024/03/05 05:53:36;;;;;;;48.17;20.33;;;;;;;-146.27;89.42;45452.91;5070138;28;20028;-75
2024/03/05 05:56:01;;;;;;;51.92;19.52;;;;;;;-146.27;89.34;45452.91;5068227;28;20028;-75
2024/03/05 05:58:27;;;;;;;52.50;19.42;;;;;;;-146.27;89.31;45462.88;5069664;28;20024;-75
2024/03/05 06:00:53;;;;;;;50.55;20.58;;;;;;;-146.27;89.04;45470.81;5069322;28;20028;-76
2024/03/05 06:03:18;;;;;;;55.95;21.40;;;;;;;-146.27;89.67;45415.09;5069972;28;20024;-75
2024/03/05 06:05:46;;;;;;;42.05;18.67;;;;;;;-146.27;89.42;45437.00;5072472;28;20718;-75
2024/03/05 06:08:13;;;;;;;46.58;20.05;;;;;;;-146.27;89.78;45421.06;5067658;28;20457;-76
2024/03/05 06:10:41;;;;;;;54.33;19.63;;;;;;;-146.27;89.18;45437.00;5070547;28;20389;-76
2024/03/05 06:13:06;;;;;;;49.08;19.73;;;;;;;-146.27;89.51;45444.94;5073462;28;20032;-75
2024/03/05 06:15:33;;;;;;;50.42;20.35;;;;;;;-146.27;89.06;45411.13;5072001;28;20073;-74
2024/03/05 06:17:59;;;;;;;46.53;19.52;;;;;;;-146.27;89.09;45429.03;5072791;28;20044;-74
2024/03/05 06:20:27;;;;;;;48.83;20.15;;;;;;;-146.27;88.97;45413.09;5073364;28;20023;-76
2024/03/05 06:22:52;;;;;;;47.00;21.10;;;;;;;-146.27;89.05;45448.94;5071387;28;20729;-75
2024/03/05 06:25:18;;;;;;;49.50;20.67;;;;;;;-146.27;88.97;45450.91;5072047;28;20099;-76
2024/03/05 06:27:44;;;;;;;55.30;20.85;;;;;;;-146.27;90.04;45409.13;5071382;28;20166;-75
2024/03/05 06:30:18;;;;;;;50.65;20.33;;;;;;;-146.27;89.95;45389.22;5071804;28;20530;-74
2024/03/05 06:32:48;;;;;;;47.55;18.92;;;;;;;-146.27;89.88;45417.09;5080842;28;20612;-74
2024/03/05 06:35:18;;;;;;;47.45;20.25;;;;;;;-146.27;89.45;45397.19;5101598;28;20047;-73
2024/03/05 06:37:45;;;;;;;54.92;21.92;;;;;;;-146.27;89.10;45409.13;5071213;28;20050;-75
2024/03/05 06:40:11;;;;;;;57.80;21.02;;;;;;;-146.27;89.26;45417.09;5072423;28;20035;-74
2024/03/05 06:43:03;;;;;;;51.55;19.33;;;;;;;-146.27;89.18;45440.97;5086277;28;20031;-75
2024/03/05 06:45:29;;;;;;;50.42;19.90;;;;;;;-146.27;89.09;45437.00;5072914;28;20029;-74
2024/03/05 06:47:56;;;;;;;48.15;20.13;;;;;;;-146.27;89.35;45421.06;5070814;28;20384;-74
2024/03/05 06:50:33;;;;;;;52.10;20.25;;;;;;;-146.27;89.14;45448.94;5071668;28;20428;-75
2024/03/05 06:58:32;;;;;;;46.95;21.45;;;;;;;-146.27;88.99;45427.03;5073512;28;20500;-73
2024/03/05 07:00:58;;;;;;;44.08;20.30;;;;;;;-146.27;89.68;45433.00;5077199;28;20514;-70
2024/03/05 07:03:24;;;;;;;50.53;20.45;;;;;;;-146.27;89.27;45403.16;5072672;28;20133;-69
2024/03/05 07:05:49;;;;;;;59.50;22.60;;;;;;;-146.27;89.72;45405.16;5070777;28;20032;-69
2024/03/05 07:08:16;;;;;;;63.28;21.55;;;;;;;-146.27;89.55;45413.09;5076725;28;20055;-69
2024/03/05 07:10:41;;;;;;;54.60;22.65;;;;;;;-146.27;89.42;45415.09;5072589;28;20044;-70
2024/03/05 07:13:08;;;;;;;49.75;20.63;;;;;;;-146.27;89.02;45429.03;5072266;28;20047;-71
2024/03/05 07:15:35;;;;;;;51.47;20.77;;;;;;;-146.27;88.68;45464.84;5071648;28;20024;-70
2024/03/05 07:18:01;;;;;;;48.22;21.20;;;;;;;-146.27;88.98;45456.91;5071039;28;20048;-70
2024/03/05 07:20:27;;;;;;;48.38;21.17;;;;;;;-146.27;89.13;45438.97;5072160;28;20020;-69
2024/03/05 07:22:54;;;;;;;57.00;23.08;;;;;;;-146.27;89.34;45413.09;5072516;28;20038;-70
2024/03/05 07:25:22;;;;;;;63.00;23.65;;;;;;;-146.27;89.92;45452.91;5068448;28;20028;-70
2024/03/05 07:27:49;;;;;;;65.43;22.92;;;;;;;-146.27;89.88;45421.06;5068254;28;20052;-72
2024/03/05 07:30:20;;;;;;;68.53;24.63;;;;;;;-146.27;89.67;45413.09;5069445;28;20024;-71
2024/03/05 07:32:48;;;;;;;63.30;23.50;;;;;;;-146.27;89.56;45433.00;5072057;28;20103;-70
2024/03/05 07:35:18;;;;;;;61.17;23.75;;;;;;;-146.27;89.56;45427.03;5072391;28;20054;-71
2024/03/05 07:37:47;;;;;;;57.03;23.05;;;;;;;-146.27;89.66;45435.00;5071193;28;20105;-71
2024/03/05 07:40:17;;;;;;;52.03;23.13;;;;;;;-146.27;89.83;45429.03;5071342;28;20043;-70
2024/03/05 07:42:47;;;;;;;55.00;24.60;;;;;;;-146.27;89.60;45429.03;5072371;28;20033;-70
2024/03/05 07:45:16;;;;;;;60.47;24.85;;;;;;;-146.27;89.30;45438.97;5072015;28;20074;-73
2024/03/05 07:47:45;;;;;;;54.47;22.90;;;;;;;-146.27;89.72;45456.91;5072337;28;20492;-71
2024/03/05 07:50:12;;;;;;;65.25;24.77;;;;;;;-146.27;89.50;45468.84;5072065;28;20031;-71
2024/03/05 07:52:42;;;;;;;62.90;24.40;;;;;;;-146.27;89.65;45474.81;5072007;28;20032;-68
2024/03/05 07:55:09;;;;;;;68.55;24.52;;;;;;;-146.27;89.42;45482.78;5071883;28;20020;-70
2024/03/05 07:57:37;;;;;;;60.33;23.58;;;;;;;-146.27;89.64;45460.88;5070690;28;20398;-71
2024/03/05 08:00:12;;;;;;;68.05;24.13;;;;;;;-146.27;89.67;45476.78;5071125;28;20020;-71
2024/03/05 08:02:42;;;;;;;68.93;25.63;;;;;;;-146.27;89.56;45466.84;5071931;28;20469;-72
2024/03/05 08:05:08;;;;;;;68.60;25.75;;;;;;;-146.27;90.08;45504.66;5071077;28;20533;-71
2024/03/05 08:07:37;;;;;;;67.72;26.05;;;;;;;-146.27;90.25;45504.66;5070527;28;20623;-71
2024/03/05 08:10:07;;;;;;;66.43;27.30;;;;;;;-146.27;90.21;45492.72;5068173;28;20099;-70
2024/03/05 08:12:38;;;;;;;70.22;27.45;;;;;;;-146.27;89.93;45508.63;5071662;28;20031;-71
2024/03/05 08:15:04;;;;;;;64.88;26.33;;;;;;;-146.27;89.96;45520.59;5071596;28;20565;-70
2024/03/05 08:17:36;;;;;;;73.18;28.08;;;;;;;-146.27;89.88;45492.72;5070225;28;20037;-70
2024/03/05 08:20:07;;;;;;;73.18;29.15;;;;;;;-146.27;90.06;45536.50;5069697;28;20032;-72
2024/03/05 08:22:34;;;;;;;66.03;26.02;;;;;;;-146.27;90.07;45520.59;5071378;28;20628;-70
2024/03/05 08:25:18;;;;;;;66.68;27.00;;;;;;;-146.27;90.19;45556.41;5070394;28;20051;-71
2024/03/05 08:27:44;;;;;;;68.72;27.80;;;;;;;-146.27;90.04;45546.47;5070477;28;20123;-71
2024/03/05 08:30:15;;;;;;;76.03;27.65;;;;;;;-146.27;90.22;45518.59;5070687;28;20033;-71
2024/03/05 08:32:40;;;;;;;77.32;28.67;;;;;;;-146.27;90.16;45540.50;5068840;28;20039;-71
2024/03/05 08:35:09;;;;;;;88.45;32.35;;;;;;;-146.27;90.33;45528.53;5064309;28;20024;-71
2024/03/05 08:37:35;;;;;;;86.57;29.52;;;;;;;-146.27;90.37;45550.44;5068205;28;20024;-71
2024/03/05 08:40:00;;;;;;;70.53;28.92;;;;;;;-146.27;90.65;45524.56;5069950;28;20024;-72
2024/03/05 08:42:26;;;;;;;76.05;28.95;;;;;;;-146.27;90.55;45532.53;5070469;28;20024;-70
2024/03/05 08:44:51;;;;;;;76.15;28.35;;;;;;;-146.27;90.73;45504.66;5069918;28;20154;-71
2024/03/05 08:47:16;;;;;;;81.65;30.48;;;;;;;-146.27;90.70;45510.63;5069213;28;20070;-70
2024/03/05 08:49:42;;;;;;;74.18;28.15;;;;;;;-146.27;90.40;45540.50;5070556;28;20035;-71
2024/03/05 08:52:07;;;;;;;78.20;28.70;;;;;;;-146.27;90.34;45532.53;5069834;28;20032;-71
2024/03/05 08:54:34;;;;;;;73.32;30.52;;;;;;;-146.27;90.63;45536.50;5068966;28;20037;-71
2024/03/05 08:57:00;;;;;;;71.70;29.20;;;;;;;-146.27;90.41;45528.53;5068993;28;20027;-70
2024/03/05 08:59:26;;;;;;;73.93;29.55;;;;;;;-146.27;90.40;45522.56;5070597;28;20384;-72
2024/03/05 09:01:53;;;;;;;82.72;31.92;;;;;;;-146.27;90.54;45508.63;5070819;28;20031;-71
2024/03/05 09:04:23;;;;;;;75.72;30.25;;;;;;;-146.27;90.50;45532.53;5069503;28;20099;-70
2024/03/05 09:06:49;;;;;;;71.95;30.75;;;;;;;-146.27;90.45;45536.50;5070506;28;20237;-70
2024/03/05 09:09:16;;;;;;;73.43;31.35;;;;;;;-146.27;90.36;45516.59;5070555;28;20037;-71
2024/03/05 09:11:42;;;;;;;78.50;31.38;;;;;;;-146.27;90.61;45508.63;5070550;28;20107;-71
2024/03/05 09:14:08;;;;;;;70.55;29.75;;;;;;;-146.27;90.75;45508.63;5070387;28;20147;-71
2024/03/05 09:16:34;;;;;;;81.47;31.50;;;;;;;-146.27;90.70;45488.75;5069620;28;20012;-70
2024/03/05 09:18:59;;;;;;;76.13;30.73;;;;;;;-146.27;90.32;45500.69;5068789;28;20043;-71
2024/03/05 09:21:25;;;;;;;74.38;30.63;;;;;;;-146.27;90.30;45518.59;5070476;28;20044;-75
2024/03/05 09:23:50;;;;;;;78.70;32.08;;;;;;;-146.27;90.29;45518.59;5069214;28;20028;-75
2024/03/05 09:26:16;;;;;;;75.70;31.65;;;;;;;-146.27;90.46;45500.69;5069664;28;20031;-74
2024/03/05 09:28:41;;;;;;;70.45;30.67;;;;;;;-146.27;90.42;45514.63;5070417;28;20054;-74
2024/03/05 09:31:07;;;;;;;71.80;30.67;;;;;;;-146.27;90.29;45520.59;5069159;28;20024;-75
2024/03/05 09:33:33;;;;;;;66.32;29.02;;;;;;;-146.27;90.41;45484.75;5069803;28;20031;-74
2024/03/05 09:35:58;;;;;;;79.25;30.80;;;;;;;-146.27;90.61;45516.59;5066692;28;20528;-74
2024/03/05 09:38:25;;;;;;;71.65;31.33;;;;;;;-146.27;90.61;45486.75;5066097;28;20567;-74
2024/03/05 09:40:51;;;;;;;70.28;28.60;;;;;;;-146.27;90.44;45476.78;5068124;28;20024;-75
2024/03/05 09:43:21;;;;;;;64.70;30.55;;;;;;;-146.27;90.39;45472.81;5070609;28;20066;-75
2024/03/05 09:45:48;;;;;;;74.93;29.50;;;;;;;-146.27;90.32;45442.97;5069659;28;20089;-75
2024/03/05 09:48:17;;;;;;;77.63;31.23;;;;;;;-146.27;90.10;45442.97;5070009;28;20056;-75
2024/03/05 09:50:43;;;;;;;72.97;32.88;;;;;;;-146.27;90.27;45460.88;5069274;28;20036;-74
2024/03/05 09:53:11;;;;;;;76.15;31.17;;;;;;;-146.27;90.06;45440.97;5069214;28;20469;-73
2024/03/05 09:55:37;;;;;;;68.47;30.85;;;;;;;-146.27;89.48;45466.84;5069427;28;20082;-77
2024/03/05 09:58:09;;;;;;;66.03;31.48;;;;;;;-146.27;89.40;45464.84;5068647;28;20028;-76
2024/03/05 10:00:37;;;;;;;72.00;31.48;;;;;;;-146.27;89.51;45470.81;5070018;28;20099;-76
2024/03/05 10:03:03;;;;;;;71.93;31.08;;;;;;;-146.27;89.53;45456.91;5069061;28;20528;-76
2024/03/05 10:05:28;;;;;;;66.70;30.33;;;;;;;-146.27;89.47;45464.84;5069760;28;20107;-75
2024/03/05 10:07:54;;;;;;;62.67;29.27;;;;;;;-146.27;89.32;45488.75;5070117;28;20051;-78
2024/03/05 10:10:20;;;;;;;59.58;30.40;;;;;;;-146.27;88.96;45454.91;5068775;28;20036;-77
2024/03/05 10:12:46;;;;;;;73.25;31.27;;;;;;;-146.27;88.72;45470.81;5069824;28;20541;-77
2024/03/05 10:15:13;;;;;;;64.32;31.17;;;;;;;-146.27;88.44;45500.69;5069757;28;20024;-77
2024/03/05 10:17:49;;;;;;;65.88;30.58;;;;;;;-146.27;88.01;45520.59;5068790;28;20039;-76
2024/03/05 10:20:27;;;;;;;67.15;31.15;;;;;;;-146.27;88.08;45514.63;5068284;28;20054;-77
2024/03/05 10:22:54;;;;;;;67.63;30.73;;;;;;;-146.27;87.78;45522.56;5069769;28;20478;-77
2024/03/05 10:25:20;;;;;;;64.43;30.95;;;;;;;-146.27;87.56;45554.41;5069778;28;20016;-78
2024/03/05 10:27:47;;;;;;;64.82;33.45;;;;;;;-146.27;87.67;45520.59;5069014;28;20087;-77
2024/03/05 10:30:31;;;;;;;59.78;29.52;;;;;;;-146.27;87.21;45542.47;5069837;28;20033;-70
2024/03/05 10:32:59;;;;;;;61.88;29.92;;;;;;;-146.27;86.97;45560.38;5069177;28;20028;-78
2024/03/05 10:35:25;;;;;;;57.85;29.65;;;;;;;-146.27;86.73;45572.34;5068378;28;20052;-78
2024/03/05 10:38:08;;;;;;;59.35;28.65;;;;;;;-146.27;86.48;45544.47;5069763;28;20071;-78
2024/03/05 10:40:34;;;;;;;62.95;31.05;;;;;;;-146.27;86.13;45516.59;5070152;28;20107;-77
2024/03/05 10:43:07;;;;;;;56.65;29.42;;;;;;;-146.27;85.51;45564.38;5069657;28;20064;-77
2024/03/05 10:45:34;;;;;;;49.28;27.33;;;;;;;-146.27;85.13;45580.28;5069565;28;20031;-77
2024/03/05 10:48:00;;;;;;;48.10;26.45;;;;;;;-146.27;84.28;45608.16;5066582;28;20031;-74
2024/03/05 10:50:27;;;;;;;54.70;26.77;;;;;;;-146.27;84.00;45588.25;5052522;28;20029;-76
2024/03/05 10:52:56;;;;;;;45.67;26.20;;;;;;;-146.27;84.26;45580.28;5053351;28;20494;-78
2024/03/05 10:55:23;;;;;;;48.13;26.05;;;;;;;-146.27;83.56;45584.28;5051857;28;20040;-76
2024/03/05 11:00:40;;;;;;;47.83;25.23;;;;;;;-146.27;83.22;45590.25;5053284;28;20133;-77
2024/03/05 11:03:08;;;;;;;51.85;27.60;;;;;;;-146.27;83.81;45614.13;5060379;28;20027;-77
2024/03/05 11:05:40;;;;;;;49.83;27.38;;;;;;;-146.27;83.52;45586.25;5056515;28;20536;-75
2024/03/05 11:08:13;;;;;;;49.95;26.95;;;;;;;-146.27;83.34;45612.13;5056351;28;20392;-75
2024/03/05 11:10:40;;;;;;;54.03;27.25;;;;;;;-146.27;83.17;45610.16;5072813;28;20059;-76